createdAt,value
2019-03-16T00:01:21.831Z,12.27
2019-03-16T00:03:50.279Z,12.24
2019-03-16T00:06:18.712Z,12.24
2019-03-16T00:08:47.197Z,12.12
2019-03-16T00:11:15.649Z,12.18
2019-03-16T00:13:44.104Z,12.16
2019-03-16T00:21:25.716Z,12.10
2019-03-16T00:23:54.165Z,12.07
2019-03-16T00:26:22.669Z,12.05
2019-03-16T00:28:51.117Z,12.06
2019-03-16T00:31:19.568Z,12.03
2019-03-16T00:33:48.060Z,12.13
2019-03-16T00:36:35.755Z,12.17
2019-03-16T00:39:23.554Z,12.22
2019-03-16T00:41:52.011Z,12.20
2019-03-16T00:44:20.462Z,12.05
2019-03-16T00:46:48.943Z,12.06
2019-03-16T00:49:17.385Z,12.07
2019-03-16T00:51:45.832Z,12.10
2019-03-16T00:56:48.603Z,12.15
2019-03-16T01:01:51.369Z,12.18
2019-03-16T01:04:19.813Z,12.19
2019-03-16T01:06:48.303Z,12.15
2019-03-16T01:09:16.754Z,12.17
2019-03-16T01:11:45.205Z,12.19
2019-03-16T01:16:47.322Z,12.05
2019-03-16T01:19:35.130Z,12.03
2019-03-16T01:22:03.577Z,12.07
2019-03-16T01:24:51.391Z,12.04
2019-03-16T01:27:19.778Z,12.08
2019-03-16T01:29:48.224Z,12.09
2019-03-16T01:37:26.334Z,12.11
2019-03-16T01:39:54.786Z,12.07
2019-03-16T01:44:56.886Z,12.05
2019-03-16T01:47:44.560Z,12.10
2019-03-16T01:50:52.920Z,12.17
2019-03-16T01:53:21.402Z,12.06
2019-03-16T01:55:49.855Z,12.05
2019-03-16T01:58:18.304Z,12.06
2019-03-16T02:00:46.789Z,12.09
2019-03-16T02:03:15.240Z,11.98
2019-03-16T02:05:43.702Z,12.00
2019-03-16T02:11:05.109Z,12.07
2019-03-16T02:13:33.598Z,11.99
2019-03-16T02:16:10.848Z,11.86
2019-03-16T02:18:32.227Z,11.92
2019-03-16T02:21:40.672Z,11.83
2019-03-16T02:24:09.133Z,11.94
2019-03-16T02:29:50.057Z,11.91
2019-03-16T02:32:18.596Z,11.93
2019-03-16T02:34:47.010Z,11.87
2019-03-16T02:37:15.465Z,11.86
2019-03-16T02:39:44.021Z,11.84
2019-03-16T02:42:12.477Z,11.84
2019-03-16T02:45:00.463Z,11.89
2019-03-16T02:47:30.346Z,11.80
2019-03-16T02:49:58.823Z,11.80
2019-03-16T02:52:27.313Z,11.89
2019-03-16T02:54:55.763Z,11.88
2019-03-16T02:57:24.288Z,11.87
2019-03-16T03:02:26.671Z,11.88
2019-03-16T03:04:56.879Z,11.99
2019-03-16T03:07:25.323Z,11.94
2019-03-16T03:09:53.789Z,11.99
2019-03-16T03:12:22.455Z,12.02
2019-03-16T03:15:10.204Z,11.94
2019-03-16T03:17:58.061Z,11.92
2019-03-16T03:20:26.504Z,12.00
2019-03-16T03:22:54.959Z,11.99
2019-03-16T03:25:23.448Z,11.97
2019-03-16T03:27:51.896Z,11.93
2019-03-16T03:30:20.355Z,11.94
2019-03-16T03:32:48.873Z,11.96
2019-03-16T03:35:17.317Z,11.94
2019-03-16T03:38:05.055Z,12.05
2019-03-16T03:40:33.503Z,11.95
2019-03-16T03:43:01.950Z,11.94
2019-03-16T03:45:49.803Z,11.95
2019-03-16T03:48:19.893Z,11.90
2019-03-16T03:50:48.341Z,11.95
2019-03-16T03:53:16.837Z,12.07
2019-03-16T03:56:04.604Z,11.98
2019-03-16T03:58:52.328Z,11.98
2019-03-16T04:01:39.971Z,11.94
2019-03-16T04:04:27.710Z,12.00
2019-03-16T04:07:19.783Z,12.04
2019-03-16T04:09:45.723Z,12.08
2019-03-16T04:12:14.164Z,12.07
2019-03-16T04:15:02.004Z,12.01
2019-03-16T04:17:30.452Z,12.10
2019-03-16T04:20:18.514Z,12.11
2019-03-16T04:22:46.954Z,12.12
2019-03-16T04:25:15.475Z,12.12
2019-03-16T04:27:43.967Z,12.09
2019-03-16T04:30:52.325Z,12.16
2019-03-16T04:33:20.818Z,12.24
2019-03-16T04:35:49.276Z,12.11
2019-03-16T04:38:17.717Z,12.07
2019-03-16T04:41:05.395Z,12.03
2019-03-16T04:43:33.862Z,12.24
2019-03-16T04:46:21.596Z,12.19
2019-03-16T04:48:50.042Z,12.03
2019-03-16T04:51:18.489Z,12.05
2019-03-16T04:53:46.974Z,12.08
2019-03-16T04:56:15.427Z,12.00
2019-03-16T04:58:43.877Z,12.16
2019-03-16T05:01:12.366Z,11.98
2019-03-16T05:03:40.813Z,12.08
2019-03-16T05:06:09.261Z,12.16
2019-03-16T05:08:37.792Z,12.09
2019-03-16T05:11:06.314Z,12.17
2019-03-16T05:13:34.763Z,12.11
2019-03-16T05:16:22.429Z,12.11
2019-03-16T05:21:38.347Z,12.04
2019-03-16T05:24:06.793Z,11.96
2019-03-16T05:26:35.241Z,12.09
2019-03-16T05:29:03.797Z,11.99
2019-03-16T05:31:32.244Z,12.20
2019-03-16T05:34:00.698Z,11.98
2019-03-16T05:39:22.317Z,12.00
2019-03-16T05:44:43.841Z,11.97
2019-03-16T05:49:46.284Z,11.96
2019-03-16T05:52:14.768Z,12.03
2019-03-16T05:54:43.212Z,11.94
2019-03-16T05:57:11.677Z,12.05
2019-03-16T05:59:40.158Z,11.96
2019-03-16T06:02:08.603Z,12.01
2019-03-16T06:04:37.054Z,12.00
2019-03-16T06:07:05.541Z,11.94
2019-03-16T06:09:33.990Z,11.99
2019-03-16T06:12:02.438Z,11.90
2019-03-16T06:14:30.961Z,11.98
2019-03-16T06:16:59.412Z,12.11
2019-03-16T06:19:27.864Z,12.03
2019-03-16T06:24:30.062Z,11.93
2019-03-16T06:26:58.510Z,11.97
2019-03-16T06:29:27.014Z,12.06
2019-03-16T06:31:55.436Z,11.99
2019-03-16T06:34:43.137Z,11.83
2019-03-16T06:37:11.588Z,11.71
2019-03-16T06:39:40.033Z,11.76
2019-03-16T06:42:08.532Z,12.04
2019-03-16T06:44:36.981Z,11.92
2019-03-16T06:47:25.062Z,11.74
2019-03-16T06:50:12.730Z,11.60
2019-03-16T06:52:41.257Z,11.65
2019-03-16T06:55:49.623Z,11.67
2019-03-16T06:58:18.111Z,11.64
2019-03-16T07:00:46.562Z,11.66
2019-03-16T07:03:15.009Z,11.76
2019-03-16T07:05:43.516Z,11.52
2019-03-16T07:08:11.968Z,11.71
2019-03-16T07:10:40.429Z,11.46
2019-03-16T07:13:08.942Z,11.53
2019-03-16T07:18:24.859Z,11.66
2019-03-16T07:20:53.305Z,11.71
2019-03-16T07:23:21.797Z,11.86
2019-03-16T07:28:26.342Z,11.58
2019-03-16T07:36:04.328Z,11.85
2019-03-16T07:38:32.781Z,11.71
2019-03-16T07:43:35.213Z,11.93
2019-03-16T07:46:03.707Z,11.78
2019-03-16T07:48:32.149Z,11.64
2019-03-16T07:51:00.628Z,11.78
2019-03-16T07:53:29.112Z,11.69
2019-03-16T07:55:57.578Z,11.63
2019-03-16T07:58:26.033Z,11.64
2019-03-16T08:00:54.543Z,11.75
2019-03-16T08:03:22.992Z,11.78
2019-03-16T08:05:51.442Z,11.74
2019-03-16T08:10:53.856Z,11.82
2019-03-16T08:13:22.305Z,11.90
2019-03-16T08:15:50.790Z,11.91
2019-03-16T08:18:19.237Z,11.86
2019-03-16T08:21:06.863Z,11.93
2019-03-16T08:23:35.307Z,11.92
2019-03-16T08:26:22.978Z,11.81
2019-03-16T08:28:51.431Z,11.75
2019-03-16T08:31:19.875Z,11.77
2019-03-16T08:36:22.584Z,11.96
2019-03-16T08:38:51.069Z,11.98
2019-03-16T08:41:19.521Z,12.04
2019-03-16T08:43:47.971Z,12.03
2019-03-16T08:49:09.552Z,12.24
2019-03-16T08:51:38.042Z,12.10
2019-03-16T08:54:06.507Z,12.32
2019-03-16T08:56:54.171Z,12.29
2019-03-16T08:59:24.402Z,12.41
2019-03-16T09:02:12.159Z,12.46
2019-03-16T09:04:40.610Z,12.45
2019-03-16T09:07:09.063Z,12.59
2019-03-16T09:12:11.716Z,12.34
2019-03-16T09:14:40.194Z,12.45
2019-03-16T09:17:09.242Z,12.40
2019-03-16T09:19:38.885Z,12.41
2019-03-16T09:25:17.809Z,12.38
2019-03-16T09:27:46.264Z,12.49
2019-03-16T09:33:46.411Z,12.32
2019-03-16T09:36:14.874Z,12.41
2019-03-16T09:44:26.816Z,12.29
2019-03-16T09:49:47.443Z,12.27
2019-03-16T09:52:15.872Z,12.22
2019-03-16T09:54:44.389Z,12.38
2019-03-16T09:59:47.126Z,12.23
2019-03-16T10:02:15.650Z,12.23
2019-03-16T10:04:44.141Z,12.26
2019-03-16T10:07:12.593Z,12.15
2019-03-16T10:09:41.044Z,12.28
2019-03-16T10:14:43.851Z,12.34
2019-03-16T10:17:12.350Z,12.26
2019-03-16T10:19:40.811Z,12.32
2019-03-16T10:22:09.266Z,12.41
2019-03-16T10:27:11.572Z,12.74
2019-03-16T10:29:40.022Z,12.65
2019-03-16T10:32:08.527Z,12.72
2019-03-16T10:34:36.973Z,12.85
2019-03-16T10:37:05.492Z,12.82
2019-03-16T10:39:33.974Z,12.86
2019-03-16T10:42:02.416Z,12.93
2019-03-16T10:44:30.864Z,13.08
2019-03-16T10:49:33.046Z,12.77
2019-03-16T10:52:01.495Z,12.88
2019-03-16T10:54:29.977Z,13.00
2019-03-16T10:56:58.445Z,12.98
2019-03-16T10:59:26.904Z,13.05
2019-03-16T11:01:55.390Z,12.95
2019-03-16T11:04:43.166Z,12.83
2019-03-16T11:07:11.651Z,12.93
2019-03-16T11:09:59.316Z,12.96
2019-03-16T11:12:27.798Z,13.08
2019-03-16T11:14:56.248Z,13.32
2019-03-16T11:17:24.711Z,13.44
2019-03-16T11:22:46.494Z,13.27
2019-03-16T11:25:34.242Z,13.27
2019-03-16T11:28:02.696Z,13.42
2019-03-16T11:30:31.144Z,13.18
2019-03-16T11:35:52.766Z,13.18
2019-03-16T11:41:14.227Z,13.10
2019-03-16T11:46:17.142Z,13.10
2019-03-16T11:51:20.024Z,13.00
2019-03-16T11:53:48.510Z,13.23
2019-03-16T11:56:18.216Z,13.23
2019-03-16T11:58:47.132Z,13.20
2019-03-16T12:01:15.617Z,13.13
2019-03-16T12:03:44.070Z,13.00
2019-03-16T12:09:00.008Z,12.95
2019-03-16T12:11:28.456Z,12.74
2019-03-16T12:13:56.909Z,12.77
2019-03-16T12:16:25.390Z,12.97
2019-03-16T12:18:53.854Z,13.12
2019-03-16T12:21:22.297Z,13.18
2019-03-16T12:23:50.804Z,13.14
2019-03-16T12:26:20.302Z,12.99
2019-03-16T12:28:49.494Z,12.93
2019-03-16T12:31:18.022Z,12.54
2019-03-16T12:33:46.469Z,12.37
2019-03-16T12:36:14.917Z,12.45
2019-03-16T12:38:43.397Z,12.38
2019-03-16T12:41:11.853Z,12.14
2019-03-16T12:43:59.603Z,12.19
2019-03-16T12:46:28.055Z,12.04
2019-03-16T12:48:56.509Z,12.08
2019-03-16T12:51:25.011Z,12.10
2019-03-16T12:53:53.461Z,11.90
2019-03-16T12:56:21.909Z,12.00
2019-03-16T12:58:50.390Z,12.01
2019-03-16T13:01:18.842Z,11.86
2019-03-16T13:03:50.141Z,12.13
2019-03-16T13:06:19.090Z,12.07
2019-03-16T13:08:47.725Z,12.18
2019-03-16T13:11:35.406Z,12.07
2019-03-16T13:17:11.951Z,12.16
2019-03-16T13:19:59.649Z,11.88
2019-03-16T13:22:28.165Z,12.00
2019-03-16T13:25:15.803Z,11.98
2019-03-16T13:27:44.298Z,11.90
2019-03-16T13:30:32.085Z,11.83
2019-03-16T13:33:00.575Z,11.72
2019-03-16T13:35:29.022Z,11.81
2019-03-16T13:37:57.471Z,11.85
2019-03-16T13:40:25.991Z,11.84
2019-03-16T13:42:54.430Z,11.89
2019-03-16T13:45:22.878Z,11.82
2019-03-16T13:47:52.017Z,11.93
2019-03-16T13:51:01.484Z,11.94
2019-03-16T13:56:22.787Z,11.81
2019-03-16T13:58:53.026Z,11.95
2019-03-16T14:01:21.472Z,11.84
2019-03-16T14:03:56.898Z,11.86
2019-03-16T14:08:59.002Z,11.83
2019-03-16T14:11:27.451Z,11.90
2019-03-16T14:13:55.999Z,12.06
2019-03-16T14:16:24.441Z,11.83
2019-03-16T14:19:13.931Z,11.76
2019-03-16T14:22:03.354Z,11.84
2019-03-16T14:24:31.844Z,11.78
2019-03-16T14:27:02.015Z,11.78
2019-03-16T14:29:30.473Z,11.84
2019-03-16T14:31:58.952Z,11.86
2019-03-16T14:34:27.404Z,12.01
2019-03-16T14:36:57.383Z,11.93
2019-03-16T14:42:00.260Z,12.05
2019-03-16T14:47:02.404Z,12.22
2019-03-16T14:49:30.876Z,12.04
2019-03-16T14:54:33.766Z,12.06
2019-03-16T14:57:02.279Z,12.12
2019-03-16T14:59:30.717Z,11.97
2019-03-16T15:01:59.165Z,12.09
2019-03-16T15:04:46.958Z,12.07
2019-03-16T15:07:15.406Z,12.05
2019-03-16T15:09:43.853Z,12.05
2019-03-16T15:12:12.336Z,11.93
2019-03-16T15:15:20.746Z,11.75
2019-03-16T15:17:49.183Z,11.81
2019-03-16T15:20:36.951Z,12.12
2019-03-16T15:23:05.514Z,12.04
2019-03-16T15:25:33.964Z,12.10
2019-03-16T15:28:21.692Z,11.82
2019-03-16T15:30:51.234Z,11.92
2019-03-16T15:36:32.534Z,11.80
2019-03-16T15:39:01.020Z,11.65
2019-03-16T15:41:29.465Z,11.65
2019-03-16T15:43:57.922Z,11.75
2019-03-16T15:46:26.424Z,11.90
2019-03-16T15:48:54.877Z,12.03
2019-03-16T15:51:24.178Z,11.84
2019-03-16T15:56:27.948Z,11.94
2019-03-16T15:58:57.688Z,11.97
2019-03-16T16:01:26.137Z,12.08
2019-03-16T16:03:54.588Z,12.09
2019-03-16T16:08:56.754Z,12.09
2019-03-16T16:11:25.205Z,12.33
2019-03-16T16:16:27.983Z,12.24
2019-03-16T16:21:30.143Z,12.31
2019-03-16T16:23:58.589Z,12.06
2019-03-16T16:26:27.093Z,12.22
2019-03-16T16:28:55.545Z,12.39
2019-03-16T16:31:24.002Z,12.25
2019-03-16T16:36:26.678Z,12.29
2019-03-16T16:38:55.130Z,12.18
2019-03-16T16:41:25.646Z,12.24
2019-03-16T16:46:47.513Z,12.12
2019-03-16T16:49:15.994Z,12.12
2019-03-16T16:51:44.442Z,12.25
2019-03-16T16:54:12.897Z,12.31
2019-03-16T16:56:41.412Z,12.30
2019-03-16T16:59:09.875Z,12.32
2019-03-16T17:01:38.324Z,12.28
2019-03-16T17:04:26.036Z,12.15
2019-03-16T17:07:13.740Z,12.06
2019-03-16T17:10:01.638Z,12.05
2019-03-16T17:12:30.168Z,11.88
2019-03-16T17:14:58.610Z,11.96
2019-03-16T17:17:35.252Z,12.12
2019-03-16T17:19:57.280Z,12.14
2019-03-16T17:25:53.224Z,11.99
2019-03-16T17:28:21.676Z,11.94
2019-03-16T17:30:50.192Z,12.02
2019-03-16T17:35:52.540Z,11.88
2019-03-16T17:38:20.988Z,12.25
2019-03-16T17:40:49.493Z,12.31
2019-03-16T17:43:17.941Z,12.33
2019-03-16T17:45:46.389Z,11.85
2019-03-16T17:50:48.949Z,11.73
2019-03-16T17:53:17.431Z,11.77
2019-03-16T17:58:34.988Z,11.68
2019-03-16T18:01:03.528Z,11.71
2019-03-16T18:03:31.997Z,11.75
2019-03-16T18:06:19.585Z,11.55
2019-03-16T18:08:48.033Z,11.71
2019-03-16T18:11:16.503Z,11.77
2019-03-16T18:13:45.008Z,11.52
2019-03-16T18:16:32.779Z,11.43
2019-03-16T18:19:01.297Z,11.44
2019-03-16T18:21:29.762Z,11.34
2019-03-16T18:24:17.577Z,11.24
2019-03-16T18:26:46.050Z,11.12
2019-03-16T18:29:14.495Z,11.27
2019-03-16T18:34:16.565Z,11.27
2019-03-16T18:36:45.025Z,11.23
2019-03-16T18:39:13.509Z,11.26
2019-03-16T18:41:41.959Z,11.41
2019-03-16T18:44:10.406Z,11.34
2019-03-16T18:46:38.885Z,11.32
2019-03-16T18:49:07.335Z,10.96
2019-03-16T18:51:35.795Z,11.05
2019-03-16T18:56:57.354Z,10.87
2019-03-16T18:59:25.912Z,10.77
2019-03-16T19:01:54.360Z,10.92
2019-03-16T19:04:22.815Z,10.81
2019-03-16T19:06:51.303Z,11.10
2019-03-16T19:09:19.745Z,10.75
2019-03-16T19:11:48.211Z,10.82
2019-03-16T19:14:16.699Z,10.55
2019-03-16T19:16:45.142Z,10.44
2019-03-16T19:19:13.590Z,10.38
2019-03-16T19:21:42.089Z,10.29
2019-03-16T19:24:10.542Z,10.18
2019-03-16T19:26:38.993Z,10.19
2019-03-16T19:29:26.830Z,10.08
2019-03-16T19:31:55.306Z,10.12
2019-03-16T19:34:43.024Z,9.98
2019-03-16T19:37:11.467Z,9.94
2019-03-16T19:39:39.952Z,9.90
2019-03-16T19:42:08.424Z,9.80
2019-03-16T19:44:36.869Z,9.87
2019-03-16T19:47:24.675Z,9.75
2019-03-16T19:49:53.153Z,9.78
2019-03-16T19:52:21.669Z,9.72
2019-03-16T19:58:03.188Z,9.81
2019-03-16T20:00:31.678Z,9.78
2019-03-16T20:03:00.202Z,9.84
2019-03-16T20:05:48.034Z,10.11
2019-03-16T20:08:16.487Z,10.09
2019-03-16T20:10:44.948Z,10.30
2019-03-16T20:13:13.429Z,10.37
2019-03-16T20:15:43.939Z,10.34
2019-03-16T20:18:31.482Z,10.21
2019-03-16T20:20:59.932Z,10.15
2019-03-16T20:23:28.392Z,9.96
2019-03-16T20:28:31.264Z,9.80
2019-03-16T20:30:59.713Z,9.74
2019-03-16T20:33:28.196Z,9.71
2019-03-16T20:35:56.641Z,9.75
2019-03-16T20:38:25.158Z,9.78
2019-03-16T20:40:53.643Z,9.75
2019-03-16T20:43:41.621Z,9.46
2019-03-16T20:46:11.648Z,9.31
2019-03-16T20:48:40.096Z,9.28
2019-03-16T20:51:08.551Z,9.09
2019-03-16T20:53:37.023Z,9.21
2019-03-16T20:56:24.814Z,9.17
2019-03-16T21:01:27.805Z,9.08
2019-03-16T21:03:57.872Z,9.09
2019-03-16T21:06:26.323Z,9.31
2019-03-16T21:09:03.080Z,9.50
2019-03-16T21:11:24.967Z,9.67
2019-03-16T21:13:53.412Z,9.55
2019-03-16T21:16:21.859Z,9.39
2019-03-16T21:21:24.547Z,9.27
2019-03-16T21:23:53.028Z,9.25
2019-03-16T21:26:21.508Z,9.23
2019-03-16T21:28:49.914Z,9.27
2019-03-16T21:31:37.584Z,9.25
2019-03-16T21:34:25.354Z,9.12
2019-03-16T21:36:53.825Z,9.18
2019-03-16T21:39:22.275Z,9.14
2019-03-16T21:41:50.721Z,9.20
2019-03-16T21:44:19.200Z,9.06
2019-03-16T21:46:47.648Z,8.98
2019-03-16T21:52:03.582Z,8.90
2019-03-16T21:54:32.027Z,8.73
2019-03-16T21:57:00.530Z,8.69
2019-03-16T21:59:29.100Z,8.53
2019-03-16T22:01:57.535Z,8.52
2019-03-16T22:04:25.981Z,8.66
2019-03-16T22:07:13.654Z,8.57
2019-03-16T22:09:42.095Z,8.43
2019-03-16T22:12:29.948Z,8.06
2019-03-16T22:14:58.392Z,8.01
2019-03-16T22:17:26.846Z,7.92
2019-03-16T22:19:55.320Z,7.29
2019-03-16T22:22:23.765Z,7.40
2019-03-16T22:25:11.665Z,7.29
2019-03-16T22:27:40.107Z,7.27
2019-03-16T22:30:48.497Z,7.00
2019-03-16T22:33:16.944Z,6.87
2019-03-16T22:35:45.382Z,7.03
2019-03-16T22:38:33.222Z,6.79
2019-03-16T22:41:01.663Z,6.96
2019-03-16T22:43:30.120Z,6.54
2019-03-16T22:45:58.623Z,6.47
2019-03-16T22:48:46.198Z,6.49
2019-03-16T22:53:48.466Z,6.28
2019-03-16T22:56:16.959Z,6.17
2019-03-16T22:58:45.478Z,6.23
2019-03-16T23:01:33.180Z,6.20
2019-03-16T23:04:20.820Z,6.03
2019-03-16T23:06:49.342Z,5.93
2019-03-16T23:09:36.991Z,6.17
2019-03-16T23:14:59.076Z,6.13
2019-03-16T23:20:01.473Z,5.97
2019-03-16T23:22:49.220Z,6.22
2019-03-16T23:25:17.684Z,6.15
2019-03-16T23:27:46.207Z,6.17
2019-03-16T23:30:33.938Z,6.23
2019-03-16T23:33:21.579Z,6.27
2019-03-16T23:35:50.079Z,6.27
2019-03-16T23:38:18.528Z,6.20
2019-03-16T23:40:47.058Z,6.44
2019-03-16T23:45:49.924Z,6.43
2019-03-16T23:48:18.429Z,6.54
2019-03-16T23:50:46.875Z,6.51
2019-03-16T23:53:15.330Z,6.35
2019-03-16T23:58:36.942Z,6.56
